Terminal Aerodrome Forecast
Issued by NWS

Home | Current Version | Previous Version | Text Only | Print | Product List | Glossary On
Versions: 1 2 3 4 5 6 7 8 9 10 11 12 13 14 15 16 17 18
000
FTAK31 PAJN 300500
TAFAJN
TAF
PAJN 300540Z 3006/0106 00000KT P6SM SCT040 OVC060
     FM301000 00000KT P6SM SCT003 BKN025 BKN035
     FM301800 12006KT P6SM VCSH BKN030 OVC070
     FM302100 24006KT P6SM BKN050 BKN100=

USA.gov is the U.S. government's official web portal to all federal, state and local government web resources and services.